Aeroporto :
LOGIN :

Iscrizione | Disclaimer

   EN    FR    IT 

 










Sommario :    VFR   VFR Marginale   IFR   IFR Intensivo   IFR Molto Intensivo
Visibilità : 
Base nubi : 
>= 8 km
>= 3000ft
5 / 8 km
1000 / 3000 ft
1500m / 5 km
500 / 1000 ft
800 / 1500m
200 / 500 ft
< 800m
< 200 ft
Simboli :   Temporali  Nebbia  Neve Forte  Precipitazioni Forti  Vento > 20 kt
SIGMETs :   Varie  Temporali  Ghiacco  Turbolenza  Onda orograficha  Ceneri Vulcaniche







- Altitudine del aeroporto : 433 ft
- Carte del aeroporto


LFOC - Chateaudun

ULTIMO METAR :
  • 201800Z AUTO 23005KT 9999 FEW023/// SCT047/// OVC084/// ///CB 21/20 Q1015

METARs OBSOLETI :
  • 201730Z AUTO 24010KT 9999 -RA BKN039/// BKN070/// BKN088/// ///CB 23/18 Q1015
  • 201700Z AUTO 24010KT 9999 FEW041/// SCT140/// BKN230/// ///CB 26/17 Q1015
  • 201630Z AUTO 26007KT 9999 FEW043 OVC230 25/18 Q1015
  • 201600Z AUTO 27009KT 9999 FEW048 BKN230 24/18 Q1015
  • 201530Z AUTO 28010KT 9999 BKN039 BKN049 BKN200 24/18 Q1015

Previsioni scadute.
Nessun NOTAM noto per questo aeroporto.



MetMap, La meteo Aeronautica in un colpo d'occhio ! - Copyright ORBIFLY Dicembre 2007 - Disclaimer

ORBIFLY MET'MAP TEAM :

Programmazione e sviluppo : Alexandra Zaïnal
Concezione e sviluppo : Baudouin d'Aumeries
Co-Programmazione e sviluppo : Marc-Olivier Méhu
Supporto tecnico e logistico : Manuel Goepfert
Aiuto per la traduzione : Arnaldo La Scala

Contatto : metmap@orbifly.com




FONTI E CREDITI :

   NOAA